sensor_id;sensor_type;location;lat;lon;timestamp;temperature;humidity
13713;DHT22;6928;50.546;7.120;2023-03-31T00:00:09;12.39;79.80
13713;DHT22;6928;50.546;7.120;2023-03-31T00:02:37;12.39;79.75
13713;DHT22;6928;50.546;7.120;2023-03-31T00:05:06;12.44;79.55
13713;DHT22;6928;50.546;7.120;2023-03-31T00:07:33;12.39;79.86
13713;DHT22;6928;50.546;7.120;2023-03-31T00:10:03;12.45;79.66
13713;DHT22;6928;50.546;7.120;2023-03-31T00:12:30;12.28;80.16
13713;DHT22;6928;50.546;7.120;2023-03-31T00:14:58;12.24;80.50
13713;DHT22;6928;50.546;7.120;2023-03-31T00:17:25;12.09;80.83
13713;DHT22;6928;50.546;7.120;2023-03-31T00:19:52;12.31;80.46
13713;DHT22;6928;50.546;7.120;2023-03-31T00:22:24;12.35;80.13
13713;DHT22;6928;50.546;7.120;2023-03-31T00:24:52;12.29;80.17
13713;DHT22;6928;50.546;7.120;2023-03-31T00:27:19;12.35;80.59
13713;DHT22;6928;50.546;7.120;2023-03-31T00:29:46;12.29;80.46
13713;DHT22;6928;50.546;7.120;2023-03-31T00:32:16;12.18;81.01
13713;DHT22;6928;50.546;7.120;2023-03-31T00:34:44;12.27;80.65
13713;DHT22;6928;50.546;7.120;2023-03-31T00:37:11;12.41;80.21
13713;DHT22;6928;50.546;7.120;2023-03-31T00:39:40;12.38;80.36
13713;DHT22;6928;50.546;7.120;2023-03-31T00:42:09;12.38;80.39
13713;DHT22;6928;50.546;7.120;2023-03-31T00:47:24;12.39;80.46
13713;DHT22;6928;50.546;7.120;2023-03-31T00:49:54;12.36;80.68
13713;DHT22;6928;50.546;7.120;2023-03-31T00:52:26;12.35;80.63
13713;DHT22;6928;50.546;7.120;2023-03-31T00:54:55;12.44;80.44
13713;DHT22;6928;50.546;7.120;2023-03-31T00:57:25;12.46;80.26
13713;DHT22;6928;50.546;7.120;2023-03-31T00:59:58;12.38;80.53
13713;DHT22;6928;50.546;7.120;2023-03-31T01:02:27;12.39;80.43
13713;DHT22;6928;50.546;7.120;2023-03-31T01:04:58;12.34;80.55
13713;DHT22;6928;50.546;7.120;2023-03-31T01:07:31;12.38;80.37
13713;DHT22;6928;50.546;7.120;2023-03-31T01:10:03;12.41;80.46
13713;DHT22;6928;50.546;7.120;2023-03-31T01:12:31;12.45;79.88
13713;DHT22;6928;50.546;7.120;2023-03-31T01:14:59;12.45;80.29
13713;DHT22;6928;50.546;7.120;2023-03-31T01:17:27;12.52;79.58
13713;DHT22;6928;50.546;7.120;2023-03-31T01:20:07;12.39;79.81
13713;DHT22;6928;50.546;7.120;2023-03-31T01:23:13;12.48;79.51
13713;DHT22;6928;50.546;7.120;2023-03-31T01:26:24;12.49;79.22
13713;DHT22;6928;50.546;7.120;2023-03-31T01:29:01;12.48;79.04
13713;DHT22;6928;50.546;7.120;2023-03-31T01:31:58;12.48;79.00
13713;DHT22;6928;50.546;7.120;2023-03-31T01:35:12;12.46;78.83
13713;DHT22;6928;50.546;7.120;2023-03-31T01:41:19;12.48;78.19
13713;DHT22;6928;50.546;7.120;2023-03-31T01:43:56;12.48;78.07
13713;DHT22;6928;50.546;7.120;2023-03-31T01:46:32;12.42;78.66
13713;DHT22;6928;50.546;7.120;2023-03-31T01:49:10;12.42;78.69
13713;DHT22;6928;50.546;7.120;2023-03-31T01:51:49;12.41;79.15
13713;DHT22;6928;50.546;7.120;2023-03-31T01:54:21;12.36;79.28
13713;DHT22;6928;50.546;7.120;2023-03-31T01:56:53;12.35;79.42
13713;DHT22;6928;50.546;7.120;2023-03-31T01:59:26;12.29;79.61
13713;DHT22;6928;50.546;7.120;2023-03-31T02:01:57;12.29;78.68
13713;DHT22;6928;50.546;7.120;2023-03-31T02:04:30;12.25;79.31
13713;DHT22;6928;50.546;7.120;2023-03-31T02:07:03;12.25;79.87
13713;DHT22;6928;50.546;7.120;2023-03-31T02:09:35;12.18;79.60
13713;DHT22;6928;50.546;7.120;2023-03-31T02:12:08;12.21;79.78
13713;DHT22;6928;50.546;7.120;2023-03-31T02:14:38;12.21;79.77
13713;DHT22;6928;50.546;7.120;2023-03-31T02:17:06;12.24;79.49
13713;DHT22;6928;50.546;7.120;2023-03-31T02:19:40;12.18;79.65
13713;DHT22;6928;50.546;7.120;2023-03-31T02:22:09;12.09;80.01
13713;DHT22;6928;50.546;7.120;2023-03-31T02:24:39;12.13;79.99
13713;DHT22;6928;50.546;7.120;2023-03-31T02:27:12;12.14;79.82
13713;DHT22;6928;50.546;7.120;2023-03-31T02:29:41;12.08;79.79
13713;DHT22;6928;50.546;7.120;2023-03-31T02:32:12;12.08;79.85
13713;DHT22;6928;50.546;7.120;2023-03-31T02:34:41;12.09;79.71
13713;DHT22;6928;50.546;7.120;2023-03-31T02:37:08;12.07;79.55
13713;DHT22;6928;50.546;7.120;2023-03-31T02:39:38;12.07;79.45
13713;DHT22;6928;50.546;7.120;2023-03-31T02:42:07;12.02;79.52
13713;DHT22;6928;50.546;7.120;2023-03-31T02:44:35;12.02;79.66
13713;DHT22;6928;50.546;7.120;2023-03-31T02:47:03;11.95;79.64
13713;DHT22;6928;50.546;7.120;2023-03-31T02:49:32;12.02;79.16
13713;DHT22;6928;50.546;7.120;2023-03-31T02:52:27;11.98;79.50
13713;DHT22;6928;50.546;7.120;2023-03-31T02:55:26;11.95;79.50
13713;DHT22;6928;50.546;7.120;2023-03-31T02:58:26;11.93;79.33
13713;DHT22;6928;50.546;7.120;2023-03-31T03:01:22;11.93;79.52
13713;DHT22;6928;50.546;7.120;2023-03-31T03:04:01;11.91;79.72
13713;DHT22;6928;50.546;7.120;2023-03-31T03:06:41;11.90;78.72
13713;DHT22;6928;50.546;7.120;2023-03-31T03:09:25;11.88;78.74
13713;DHT22;6928;50.546;7.120;2023-03-31T03:12:05;11.90;78.27
13713;DHT22;6928;50.546;7.120;2023-03-31T03:14:39;11.91;77.92
13713;DHT22;6928;50.546;7.120;2023-03-31T03:17:12;11.91;77.97
13713;DHT22;6928;50.546;7.120;2023-03-31T03:19:40;11.93;77.63
13713;DHT22;6928;50.546;7.120;2023-03-31T03:22:08;11.81;78.13
13713;DHT22;6928;50.546;7.120;2023-03-31T03:24:35;11.80;77.84
13713;DHT22;6928;50.546;7.120;2023-03-31T03:27:01;11.83;77.81
13713;DHT22;6928;50.546;7.120;2023-03-31T03:29:28;11.83;77.81
13713;DHT22;6928;50.546;7.120;2023-03-31T03:31:56;11.76;77.42
13713;DHT22;6928;50.546;7.120;2023-03-31T03:34:23;11.76;77.22
13713;DHT22;6928;50.546;7.120;2023-03-31T03:36:50;11.67;77.30
13713;DHT22;6928;50.546;7.120;2023-03-31T03:39:17;11.74;77.23
13713;DHT22;6928;50.546;7.120;2023-03-31T03:41:44;11.67;77.45
13713;DHT22;6928;50.546;7.120;2023-03-31T03:44:11;11.65;77.16
13713;DHT22;6928;50.546;7.120;2023-03-31T03:46:38;11.66;77.19
13713;DHT22;6928;50.546;7.120;2023-03-31T03:49:06;11.67;77.09
13713;DHT22;6928;50.546;7.120;2023-03-31T03:51:33;11.67;77.04
13713;DHT22;6928;50.546;7.120;2023-03-31T03:54:00;11.69;77.27
13713;DHT22;6928;50.546;7.120;2023-03-31T03:56:27;11.66;77.11
13713;DHT22;6928;50.546;7.120;2023-03-31T03:58:54;11.67;77.41
13713;DHT22;6928;50.546;7.120;2023-03-31T04:01:21;11.66;77.33
13713;DHT22;6928;50.546;7.120;2023-03-31T04:03:48;11.71;77.02
13713;DHT22;6928;50.546;7.120;2023-03-31T04:06:16;11.69;77.33
13713;DHT22;6928;50.546;7.120;2023-03-31T04:08:43;11.70;77.72
13713;DHT22;6928;50.546;7.120;2023-03-31T04:11:13;11.70;78.10
13713;DHT22;6928;50.546;7.120;2023-03-31T04:13:42;11.67;78.83
13713;DHT22;6928;50.546;7.120;2023-03-31T04:16:09;11.60;79.99
13713;DHT22;6928;50.546;7.120;2023-03-31T04:18:37;11.43;80.91
13713;DHT22;6928;50.546;7.120;2023-03-31T04:21:07;11.29;81.83
13713;DHT22;6928;50.546;7.120;2023-03-31T04:23:38;11.22;82.73
13713;DHT22;6928;50.546;7.120;2023-03-31T04:26:07;11.23;82.83
13713;DHT22;6928;50.546;7.120;2023-03-31T04:28:34;11.22;83.54
13713;DHT22;6928;50.546;7.120;2023-03-31T04:31:02;11.11;83.96
13713;DHT22;6928;50.546;7.120;2023-03-31T04:33:31;11.14;83.35
13713;DHT22;6928;50.546;7.120;2023-03-31T04:35:58;11.15;83.37
13713;DHT22;6928;50.546;7.120;2023-03-31T04:38:32;11.19;83.22
13713;DHT22;6928;50.546;7.120;2023-03-31T04:41:00;11.30;82.62
13713;DHT22;6928;50.546;7.120;2023-03-31T04:43:27;11.23;82.95
13713;DHT22;6928;50.546;7.120;2023-03-31T04:45:54;11.29;82.83
13713;DHT22;6928;50.546;7.120;2023-03-31T04:48:20;11.20;82.54
13713;DHT22;6928;50.546;7.120;2023-03-31T04:50:47;11.25;82.46
13713;DHT22;6928;50.546;7.120;2023-03-31T04:53:14;11.30;81.80
13713;DHT22;6928;50.546;7.120;2023-03-31T04:55:40;11.20;82.10
13713;DHT22;6928;50.546;7.120;2023-03-31T04:58:08;11.30;81.12
13713;DHT22;6928;50.546;7.120;2023-03-31T05:00:35;11.20;81.97
13713;DHT22;6928;50.546;7.120;2023-03-31T05:03:02;11.29;81.09
13713;DHT22;6928;50.546;7.120;2023-03-31T05:05:29;11.25;81.53
13713;DHT22;6928;50.546;7.120;2023-03-31T05:07:55;11.19;81.43
13713;DHT22;6928;50.546;7.120;2023-03-31T05:10:22;11.20;80.41
13713;DHT22;6928;50.546;7.120;2023-03-31T05:12:49;11.19;81.05
13713;DHT22;6928;50.546;7.120;2023-03-31T05:15:17;11.22;80.45
13713;DHT22;6928;50.546;7.120;2023-03-31T05:17:44;11.18;79.42
13713;DHT22;6928;50.546;7.120;2023-03-31T05:20:12;11.19;79.48
13713;DHT22;6928;50.546;7.120;2023-03-31T05:22:40;11.18;79.78
13713;DHT22;6928;50.546;7.120;2023-03-31T05:25:08;11.18;78.53
13713;DHT22;6928;50.546;7.120;2023-03-31T05:27:36;11.14;79.07
13713;DHT22;6928;50.546;7.120;2023-03-31T05:30:04;11.04;79.84
13713;DHT22;6928;50.546;7.120;2023-03-31T05:32:34;10.94;81.22
13713;DHT22;6928;50.546;7.120;2023-03-31T05:35:00;10.84;81.38
13713;DHT22;6928;50.546;7.120;2023-03-31T05:37:27;10.78;81.63
13713;DHT22;6928;50.546;7.120;2023-03-31T05:39:54;10.59;83.52
13713;DHT22;6928;50.546;7.120;2023-03-31T05:42:20;10.43;84.30
13713;DHT22;6928;50.546;7.120;2023-03-31T05:44:48;10.39;83.31
13713;DHT22;6928;50.546;7.120;2023-03-31T05:47:15;10.30;85.05
13713;DHT22;6928;50.546;7.120;2023-03-31T05:49:43;10.22;84.99
13713;DHT22;6928;50.546;7.120;2023-03-31T05:52:11;10.19;84.87
13713;DHT22;6928;50.546;7.120;2023-03-31T05:54:37;10.13;85.95
13713;DHT22;6928;50.546;7.120;2023-03-31T05:57:05;10.16;86.07
13713;DHT22;6928;50.546;7.120;2023-03-31T05:59:32;10.16;85.33
13713;DHT22;6928;50.546;7.120;2023-03-31T06:02:00;10.18;85.55
13713;DHT22;6928;50.546;7.120;2023-03-31T06:04:27;10.39;85.22
13713;DHT22;6928;50.546;7.120;2023-03-31T06:06:55;10.46;84.99
13713;DHT22;6928;50.546;7.120;2023-03-31T06:09:22;10.44;85.56
13713;DHT22;6928;50.546;7.120;2023-03-31T06:11:49;10.55;85.65
13713;DHT22;6928;50.546;7.120;2023-03-31T06:14:16;10.51;85.76
13713;DHT22;6928;50.546;7.120;2023-03-31T06:16:43;10.40;85.27
13713;DHT22;6928;50.546;7.120;2023-03-31T06:19:12;10.51;85.40
13713;DHT22;6928;50.546;7.120;2023-03-31T06:21:39;10.50;86.17
13713;DHT22;6928;50.546;7.120;2023-03-31T06:24:08;10.51;85.07
13713;DHT22;6928;50.546;7.120;2023-03-31T06:26:35;10.51;84.60
13713;DHT22;6928;50.546;7.120;2023-03-31T06:29:01;10.61;84.26
13713;DHT22;6928;50.546;7.120;2023-03-31T06:31:28;10.63;84.41
13713;DHT22;6928;50.546;7.120;2023-03-31T06:33:55;10.66;85.16
13713;DHT22;6928;50.546;7.120;2023-03-31T06:36:22;10.70;85.71
13713;DHT22;6928;50.546;7.120;2023-03-31T06:38:49;10.63;84.72
13713;DHT22;6928;50.546;7.120;2023-03-31T06:41:18;10.61;84.92
13713;DHT22;6928;50.546;7.120;2023-03-31T06:43:46;10.60;85.30
13713;DHT22;6928;50.546;7.120;2023-03-31T06:46:14;10.63;85.20
13713;DHT22;6928;50.546;7.120;2023-03-31T06:48:40;10.68;85.70
13713;DHT22;6928;50.546;7.120;2023-03-31T06:51:07;10.70;85.42
13713;DHT22;6928;50.546;7.120;2023-03-31T06:53:35;10.56;86.05
13713;DHT22;6928;50.546;7.120;2023-03-31T06:56:02;10.66;85.95
13713;DHT22;6928;50.546;7.120;2023-03-31T06:58:31;10.56;86.74
13713;DHT22;6928;50.546;7.120;2023-03-31T07:01:01;10.57;87.59
13713;DHT22;6928;50.546;7.120;2023-03-31T07:03:29;10.67;86.48
13713;DHT22;6928;50.546;7.120;2023-03-31T07:05:56;10.71;86.84
13713;DHT22;6928;50.546;7.120;2023-03-31T07:08:23;10.76;87.18
13713;DHT22;6928;50.546;7.120;2023-03-31T07:10:54;10.78;87.33
13713;DHT22;6928;50.546;7.120;2023-03-31T07:13:23;10.85;87.16
13713;DHT22;6928;50.546;7.120;2023-03-31T07:15:51;10.70;87.80
13713;DHT22;6928;50.546;7.120;2023-03-31T07:18:19;10.73;87.76
13713;DHT22;6928;50.546;7.120;2023-03-31T07:20:47;10.81;87.04
13713;DHT22;6928;50.546;7.120;2023-03-31T07:23:15;10.92;86.31
13713;DHT22;6928;50.546;7.120;2023-03-31T07:25:42;11.07;86.41
13713;DHT22;6928;50.546;7.120;2023-03-31T07:28:10;11.05;85.75
13713;DHT22;6928;50.546;7.120;2023-03-31T07:30:39;11.29;84.51
13713;DHT22;6928;50.546;7.120;2023-03-31T07:33:07;11.46;83.67
13713;DHT22;6928;50.546;7.120;2023-03-31T07:35:37;11.52;82.46
13713;DHT22;6928;50.546;7.120;2023-03-31T07:38:04;11.46;83.56
13713;DHT22;6928;50.546;7.120;2023-03-31T07:40:31;11.59;84.34
13713;DHT22;6928;50.546;7.120;2023-03-31T07:42:58;11.76;81.73
13713;DHT22;6928;50.546;7.120;2023-03-31T07:45:26;11.88;82.01
13713;DHT22;6928;50.546;7.120;2023-03-31T07:47:53;12.14;81.65
13713;DHT22;6928;50.546;7.120;2023-03-31T07:50:22;12.27;80.85
13713;DHT22;6928;50.546;7.120;2023-03-31T07:52:49;12.32;81.27
13713;DHT22;6928;50.546;7.120;2023-03-31T07:55:16;12.34;80.51
13713;DHT22;6928;50.546;7.120;2023-03-31T07:57:44;12.34;80.29
13713;DHT22;6928;50.546;7.120;2023-03-31T08:00:14;12.28;81.14
13713;DHT22;6928;50.546;7.120;2023-03-31T08:02:43;12.36;81.41
13713;DHT22;6928;50.546;7.120;2023-03-31T08:05:11;12.39;81.27
13713;DHT22;6928;50.546;7.120;2023-03-31T08:07:42;12.46;78.91
13713;DHT22;6928;50.546;7.120;2023-03-31T08:10:13;12.49;79.37
13713;DHT22;6928;50.546;7.120;2023-03-31T08:12:41;12.55;78.73
13713;DHT22;6928;50.546;7.120;2023-03-31T08:15:08;12.56;79.19
13713;DHT22;6928;50.546;7.120;2023-03-31T08:17:35;12.59;79.43
13713;DHT22;6928;50.546;7.120;2023-03-31T08:20:03;12.69;80.31
13713;DHT22;6928;50.546;7.120;2023-03-31T08:22:32;12.70;78.93
13713;DHT22;6928;50.546;7.120;2023-03-31T08:25:01;12.77;78.52
13713;DHT22;6928;50.546;7.120;2023-03-31T08:27:27;12.81;78.45
13713;DHT22;6928;50.546;7.120;2023-03-31T08:29:57;12.83;78.18
13713;DHT22;6928;50.546;7.120;2023-03-31T08:32:30;12.81;76.85
13713;DHT22;6928;50.546;7.120;2023-03-31T08:34:57;12.83;76.89
13713;DHT22;6928;50.546;7.120;2023-03-31T08:37:24;12.86;76.77
13713;DHT22;6928;50.546;7.120;2023-03-31T08:39:52;12.88;76.95
13713;DHT22;6928;50.546;7.120;2023-03-31T08:42:28;12.90;76.67
13713;DHT22;6928;50.546;7.120;2023-03-31T08:45:02;12.99;77.12
13713;DHT22;6928;50.546;7.120;2023-03-31T08:47:31;12.99;75.86
13713;DHT22;6928;50.546;7.120;2023-03-31T08:50:04;13.00;75.91
13713;DHT22;6928;50.546;7.120;2023-03-31T08:52:35;13.00;75.62
13713;DHT22;6928;50.546;7.120;2023-03-31T08:55:06;13.02;74.33
13713;DHT22;6928;50.546;7.120;2023-03-31T08:57:51;13.07;75.24
13713;DHT22;6928;50.546;7.120;2023-03-31T09:00:21;13.08;74.63
13713;DHT22;6928;50.546;7.120;2023-03-31T09:02:52;13.20;74.71
13713;DHT22;6928;50.546;7.120;2023-03-31T09:05:45;13.21;75.05
13713;DHT22;6928;50.546;7.120;2023-03-31T09:08:24;13.27;74.88
13713;DHT22;6928;50.546;7.120;2023-03-31T09:11:01;13.24;74.70
13713;DHT22;6928;50.546;7.120;2023-03-31T09:16:32;13.17;75.04
13713;DHT22;6928;50.546;7.120;2023-03-31T09:19:02;13.28;75.27
13713;DHT22;6928;50.546;7.120;2023-03-31T09:21:32;13.25;74.80
13713;DHT22;6928;50.546;7.120;2023-03-31T09:24:04;13.32;74.88
13713;DHT22;6928;50.546;7.120;2023-03-31T09:26:37;13.31;74.97
13713;DHT22;6928;50.546;7.120;2023-03-31T09:29:12;13.32;73.93
13713;DHT22;6928;50.546;7.120;2023-03-31T09:31:43;13.32;75.55
13713;DHT22;6928;50.546;7.120;2023-03-31T09:34:14;13.13;75.31
13713;DHT22;6928;50.546;7.120;2023-03-31T09:36:42;13.10;77.46
13713;DHT22;6928;50.546;7.120;2023-03-31T09:39:12;12.87;78.74
13713;DHT22;6928;50.546;7.120;2023-03-31T09:41:43;12.55;80.25
13713;DHT22;6928;50.546;7.120;2023-03-31T09:44:23;12.41;81.62
13713;DHT22;6928;50.546;7.120;2023-03-31T09:46:52;12.34;82.97
13713;DHT22;6928;50.546;7.120;2023-03-31T09:49:22;12.27;81.82
13713;DHT22;6928;50.546;7.120;2023-03-31T09:52:00;12.20;80.69
13713;DHT22;6928;50.546;7.120;2023-03-31T09:54:35;12.20;79.03
13713;DHT22;6928;50.546;7.120;2023-03-31T09:57:11;12.20;78.73
13713;DHT22;6928;50.546;7.120;2023-03-31T09:59:40;12.13;79.21
13713;DHT22;6928;50.546;7.120;2023-03-31T10:02:34;12.17;78.80
13713;DHT22;6928;50.546;7.120;2023-03-31T10:05:03;12.32;79.23
13713;DHT22;6928;50.546;7.120;2023-03-31T10:07:31;12.50;79.66
13713;DHT22;6928;50.546;7.120;2023-03-31T10:09:59;12.63;79.30
13713;DHT22;6928;50.546;7.120;2023-03-31T10:12:28;12.80;78.92
13713;DHT22;6928;50.546;7.120;2023-03-31T10:15:20;12.86;78.29
13713;DHT22;6928;50.546;7.120;2023-03-31T10:17:49;12.94;78.82
13713;DHT22;6928;50.546;7.120;2023-03-31T10:20:30;13.04;77.66
13713;DHT22;6928;50.546;7.120;2023-03-31T10:23:03;13.31;78.78
13713;DHT22;6928;50.546;7.120;2023-03-31T10:25:32;13.30;76.38
13713;DHT22;6928;50.546;7.120;2023-03-31T10:28:01;13.62;75.85
13713;DHT22;6928;50.546;7.120;2023-03-31T10:30:34;13.63;75.10
13713;DHT22;6928;50.546;7.120;2023-03-31T10:33:05;13.75;74.34
13713;DHT22;6928;50.546;7.120;2023-03-31T10:35:36;13.76;74.69
13713;DHT22;6928;50.546;7.120;2023-03-31T10:38:05;13.83;75.78
13713;DHT22;6928;50.546;7.120;2023-03-31T10:40:34;13.76;74.05
13713;DHT22;6928;50.546;7.120;2023-03-31T10:43:08;13.87;74.81
13713;DHT22;6928;50.546;7.120;2023-03-31T10:45:46;13.92;75.20
13713;DHT22;6928;50.546;7.120;2023-03-31T10:48:22;13.76;76.53
13713;DHT22;6928;50.546;7.120;2023-03-31T10:50:49;13.67;76.90
13713;DHT22;6928;50.546;7.120;2023-03-31T10:53:17;13.45;78.11
13713;DHT22;6928;50.546;7.120;2023-03-31T10:56:00;12.88;80.25
13713;DHT22;6928;50.546;7.120;2023-03-31T10:58:42;12.63;81.16
13713;DHT22;6928;50.546;7.120;2023-03-31T11:01:27;12.88;81.06
13713;DHT22;6928;50.546;7.120;2023-03-31T11:04:34;13.18;80.95
13713;DHT22;6928;50.546;7.120;2023-03-31T11:07:14;13.42;81.40
13713;DHT22;6928;50.546;7.120;2023-03-31T11:09:52;13.46;79.30
13713;DHT22;6928;50.546;7.120;2023-03-31T11:12:26;13.76;77.97
13713;DHT22;6928;50.546;7.120;2023-03-31T11:15:08;13.85;76.41
13713;DHT22;6928;50.546;7.120;2023-03-31T11:17:56;14.00;76.55
13713;DHT22;6928;50.546;7.120;2023-03-31T11:20:32;14.13;74.38
13713;DHT22;6928;50.546;7.120;2023-03-31T11:23:09;14.33;74.78
13713;DHT22;6928;50.546;7.120;2023-03-31T11:25:47;14.21;73.36
13713;DHT22;6928;50.546;7.120;2023-03-31T11:28:42;14.24;73.81
13713;DHT22;6928;50.546;7.120;2023-03-31T11:31:26;14.31;73.85
13713;DHT22;6928;50.546;7.120;2023-03-31T11:34:08;14.27;73.98
13713;DHT22;6928;50.546;7.120;2023-03-31T11:37:05;14.21;73.72
13713;DHT22;6928;50.546;7.120;2023-03-31T11:39:49;14.23;75.15
13713;DHT22;6928;50.546;7.120;2023-03-31T11:42:20;14.10;73.84
13713;DHT22;6928;50.546;7.120;2023-03-31T11:44:52;14.09;74.08
13713;DHT22;6928;50.546;7.120;2023-03-31T11:47:24;14.07;72.67
13713;DHT22;6928;50.546;7.120;2023-03-31T11:49:56;13.99;72.64
13713;DHT22;6928;50.546;7.120;2023-03-31T11:52:27;13.85;74.57
13713;DHT22;6928;50.546;7.120;2023-03-31T11:54:59;13.78;73.50
13713;DHT22;6928;50.546;7.120;2023-03-31T11:57:30;13.97;75.41
13713;DHT22;6928;50.546;7.120;2023-03-31T12:00:05;14.13;75.94
13713;DHT22;6928;50.546;7.120;2023-03-31T12:02:39;14.34;73.04
13713;DHT22;6928;50.546;7.120;2023-03-31T12:05:12;14.42;73.21
13713;DHT22;6928;50.546;7.120;2023-03-31T12:07:45;14.25;72.11
13713;DHT22;6928;50.546;7.120;2023-03-31T12:10:19;13.83;76.97
13713;DHT22;6928;50.546;7.120;2023-03-31T12:12:52;12.50;80.03
13713;DHT22;6928;50.546;7.120;2023-03-31T12:15:23;12.48;82.55
13713;DHT22;6928;50.546;7.120;2023-03-31T12:17:58;12.41;80.72
13713;DHT22;6928;50.546;7.120;2023-03-31T12:20:32;12.32;82.02
13713;DHT22;6928;50.546;7.120;2023-03-31T12:23:01;12.39;81.61
13713;DHT22;6928;50.546;7.120;2023-03-31T12:25:42;12.87;80.97
13713;DHT22;6928;50.546;7.120;2023-03-31T12:28:10;13.11;81.93
13713;DHT22;6928;50.546;7.120;2023-03-31T12:30:39;13.48;81.05
13713;DHT22;6928;50.546;7.120;2023-03-31T12:33:16;13.58;78.79
13713;DHT22;6928;50.546;7.120;2023-03-31T12:35:59;13.83;75.86
13713;DHT22;6928;50.546;7.120;2023-03-31T12:38:40;14.18;77.17
13713;DHT22;6928;50.546;7.120;2023-03-31T12:41:14;14.21;75.16
13713;DHT22;6928;50.546;7.120;2023-03-31T12:44:07;14.42;73.75
13713;DHT22;6928;50.546;7.120;2023-03-31T12:46:58;14.45;71.00
13713;DHT22;6928;50.546;7.120;2023-03-31T12:52:35;14.64;68.19
13713;DHT22;6928;50.546;7.120;2023-03-31T12:55:26;14.71;68.57
13713;DHT22;6928;50.546;7.120;2023-03-31T12:58:42;14.85;69.40
13713;DHT22;6928;50.546;7.120;2023-03-31T13:01:16;14.96;69.10
13713;DHT22;6928;50.546;7.120;2023-03-31T13:04:16;15.17;66.90
13713;DHT22;6928;50.546;7.120;2023-03-31T13:06:55;15.12;66.33
13713;DHT22;6928;50.546;7.120;2023-03-31T13:09:48;15.20;65.69
13713;DHT22;6928;50.546;7.120;2023-03-31T13:12:21;15.07;64.69
13713;DHT22;6928;50.546;7.120;2023-03-31T13:14:52;15.13;67.07
13713;DHT22;6928;50.546;7.120;2023-03-31T13:17:29;14.83;67.23
13713;DHT22;6928;50.546;7.120;2023-03-31T13:20:29;14.58;70.14
13713;DHT22;6928;50.546;7.120;2023-03-31T13:23:12;14.35;72.83
13713;DHT22;6928;50.546;7.120;2023-03-31T13:25:45;13.87;76.37
13713;DHT22;6928;50.546;7.120;2023-03-31T13:28:39;13.31;78.10
13713;DHT22;6928;50.546;7.120;2023-03-31T13:31:09;13.35;81.44
13713;DHT22;6928;50.546;7.120;2023-03-31T13:33:41;13.46;79.84
13713;DHT22;6928;50.546;7.120;2023-03-31T13:36:52;13.78;80.90
13713;DHT22;6928;50.546;7.120;2023-03-31T13:40:13;13.86;80.02
13713;DHT22;6928;50.546;7.120;2023-03-31T13:43:05;14.00;78.39
13713;DHT22;6928;50.546;7.120;2023-03-31T13:45:58;14.03;78.37
13713;DHT22;6928;50.546;7.120;2023-03-31T13:48:41;14.17;80.60
13713;DHT22;6928;50.546;7.120;2023-03-31T13:51:22;14.23;75.80
13713;DHT22;6928;50.546;7.120;2023-03-31T13:54:20;14.27;73.09
13713;DHT22;6928;50.546;7.120;2023-03-31T13:57:18;14.31;71.32
13713;DHT22;6928;50.546;7.120;2023-03-31T14:00:24;14.17;73.59
13713;DHT22;6928;50.546;7.120;2023-03-31T14:03:12;12.93;77.08
13713;DHT22;6928;50.546;7.120;2023-03-31T14:05:44;12.62;79.36
13713;DHT22;6928;50.546;7.120;2023-03-31T14:08:25;12.60;77.49
13713;DHT22;6928;50.546;7.120;2023-03-31T14:11:16;12.53;75.84
13713;DHT22;6928;50.546;7.120;2023-03-31T14:13:43;12.69;76.46
13713;DHT22;6928;50.546;7.120;2023-03-31T14:16:11;12.77;75.13
13713;DHT22;6928;50.546;7.120;2023-03-31T14:18:45;12.75;75.51
13713;DHT22;6928;50.546;7.120;2023-03-31T14:21:20;12.90;75.69
13713;DHT22;6928;50.546;7.120;2023-03-31T14:23:58;12.86;74.77
13713;DHT22;6928;50.546;7.120;2023-03-31T14:26:46;12.97;75.20
13713;DHT22;6928;50.546;7.120;2023-03-31T14:29:21;13.08;73.56
13713;DHT22;6928;50.546;7.120;2023-03-31T14:31:58;13.14;73.92
13713;DHT22;6928;50.546;7.120;2023-03-31T14:34:48;13.25;73.50
13713;DHT22;6928;50.546;7.120;2023-03-31T14:37:19;13.45;73.53
13713;DHT22;6928;50.546;7.120;2023-03-31T14:39:50;13.65;74.09
13713;DHT22;6928;50.546;7.120;2023-03-31T14:42:21;13.81;73.17
13713;DHT22;6928;50.546;7.120;2023-03-31T14:44:55;13.96;70.90
13713;DHT22;6928;50.546;7.120;2023-03-31T14:47:26;14.18;74.09
13713;DHT22;6928;50.546;7.120;2023-03-31T14:50:01;14.07;70.58
13713;DHT22;6928;50.546;7.120;2023-03-31T14:52:30;14.20;69.24
13713;DHT22;6928;50.546;7.120;2023-03-31T14:54:59;14.30;70.05
13713;DHT22;6928;50.546;7.120;2023-03-31T14:57:29;14.41;69.57
13713;DHT22;6928;50.546;7.120;2023-03-31T14:59:57;14.47;64.64
13713;DHT22;6928;50.546;7.120;2023-03-31T15:02:32;14.60;65.98
13713;DHT22;6928;50.546;7.120;2023-03-31T15:05:03;14.65;66.48
13713;DHT22;6928;50.546;7.120;2023-03-31T15:07:34;14.75;64.01
13713;DHT22;6928;50.546;7.120;2023-03-31T15:10:02;14.69;64.63
13713;DHT22;6928;50.546;7.120;2023-03-31T15:12:30;14.67;65.38
13713;DHT22;6928;50.546;7.120;2023-03-31T15:15:02;14.78;63.36
13713;DHT22;6928;50.546;7.120;2023-03-31T15:17:35;14.85;64.58
13713;DHT22;6928;50.546;7.120;2023-03-31T15:20:26;15.02;62.30
13713;DHT22;6928;50.546;7.120;2023-03-31T15:22:54;15.03;62.54
13713;DHT22;6928;50.546;7.120;2023-03-31T15:25:24;14.92;63.22
13713;DHT22;6928;50.546;7.120;2023-03-31T15:27:54;14.95;62.81
13713;DHT22;6928;50.546;7.120;2023-03-31T15:30:24;14.85;62.68
13713;DHT22;6928;50.546;7.120;2023-03-31T15:32:54;14.79;63.55
13713;DHT22;6928;50.546;7.120;2023-03-31T15:35:24;14.75;63.29
13713;DHT22;6928;50.546;7.120;2023-03-31T15:37:55;14.78;63.13
13713;DHT22;6928;50.546;7.120;2023-03-31T15:40:25;14.67;62.95
13713;DHT22;6928;50.546;7.120;2023-03-31T15:42:55;14.57;63.05
13713;DHT22;6928;50.546;7.120;2023-03-31T15:45:46;14.54;62.83
13713;DHT22;6928;50.546;7.120;2023-03-31T15:48:20;14.45;63.01
13713;DHT22;6928;50.546;7.120;2023-03-31T15:50:48;14.45;63.57
13713;DHT22;6928;50.546;7.120;2023-03-31T15:53:44;14.38;64.45
13713;DHT22;6928;50.546;7.120;2023-03-31T15:56:24;14.34;64.84
13713;DHT22;6928;50.546;7.120;2023-03-31T15:58:56;14.34;64.24
13713;DHT22;6928;50.546;7.120;2023-03-31T16:01:27;14.35;65.38
13713;DHT22;6928;50.546;7.120;2023-03-31T16:04:00;14.31;64.74
13713;DHT22;6928;50.546;7.120;2023-03-31T16:06:39;14.30;66.22
13713;DHT22;6928;50.546;7.120;2023-03-31T16:09:09;14.00;68.89
13713;DHT22;6928;50.546;7.120;2023-03-31T16:11:42;13.81;70.25
13713;DHT22;6928;50.546;7.120;2023-03-31T16:14:14;13.76;70.38
13713;DHT22;6928;50.546;7.120;2023-03-31T16:16:48;13.69;71.44
13713;DHT22;6928;50.546;7.120;2023-03-31T16:19:19;13.67;70.70
13713;DHT22;6928;50.546;7.120;2023-03-31T16:21:49;13.63;70.15
13713;DHT22;6928;50.546;7.120;2023-03-31T16:24:18;13.63;71.17
13713;DHT22;6928;50.546;7.120;2023-03-31T16:26:46;13.63;70.79
13713;DHT22;6928;50.546;7.120;2023-03-31T16:29:21;13.67;69.96
13713;DHT22;6928;50.546;7.120;2023-03-31T16:31:48;13.63;68.70
13713;DHT22;6928;50.546;7.120;2023-03-31T16:34:16;13.67;69.42